sensor_id;sensor_type;location;lat;lon;timestamp;P1;durP1;ratioP1;P2;durP2;ratioP2
68872;SDS011;55907;50.806;12.882;2022-10-16T00:01:14;0.5;;;0.5;;
68872;SDS011;55907;50.806;12.882;2022-10-16T00:04:14;1.0;;;0.4;;
68872;SDS011;55907;50.806;12.882;2022-10-16T00:05:24;unavailable;;;unavailable;;
68872;SDS011;55907;50.806;12.882;2022-10-16T00:05:29;1.0;;;0.4;;
68872;SDS011;55907;50.806;12.882;2022-10-16T00:07:16;1.3;;;0.5;;
68872;SDS011;55907;50.806;12.882;2022-10-16T00:09:55;unavailable;;;unavailable;;
68872;SDS011;55907;50.806;12.882;2022-10-16T00:09:55;1.3;;;0.5;;
68872;SDS011;55907;50.806;12.882;2022-10-16T00:10:17;0.9;;;0.6;;
68872;SDS011;55907;50.806;12.882;2022-10-16T00:13:19;0.4;;;0.4;;
68872;SDS011;55907;50.806;12.882;2022-10-16T00:16:20;2.1;;;0.8;;
68872;SDS011;55907;50.806;12.882;2022-10-16T00:19:22;1.4;;;0.4;;
68872;SDS011;55907;50.806;12.882;2022-10-16T00:22:23;1.0;;;0.5;;
68872;SDS011;55907;50.806;12.882;2022-10-16T00:25:25;2.0;;;0.4;;
68872;SDS011;55907;50.806;12.882;2022-10-16T00:28:26;1.1;;;0.5;;
68872;SDS011;55907;50.806;12.882;2022-10-16T00:31:27;2.1;;;0.5;;
68872;SDS011;55907;50.806;12.882;2022-10-16T00:34:29;0.6;;;0.4;;
68872;SDS011;55907;50.806;12.882;2022-10-16T00:37:30;1.1;;;0.4;;
68872;SDS011;55907;50.806;12.882;2022-10-16T00:40:32;0.5;;;0.4;;
68872;SDS011;55907;50.806;12.882;2022-10-16T00:43:35;0.6;;;0.4;;
68872;SDS011;55907;50.806;12.882;2022-10-16T00:46:35;0.7;;;0.4;;
68872;SDS011;55907;50.806;12.882;2022-10-16T00:49:36;1.6;;;0.5;;
68872;SDS011;55907;50.806;12.882;2022-10-16T00:52:39;1.0;;;0.4;;
68872;SDS011;55907;50.806;12.882;2022-10-16T00:55:39;1.1;;;0.4;;
68872;SDS011;55907;50.806;12.882;2022-10-16T00:58:40;0.8;;;0.5;;
68872;SDS011;55907;50.806;12.882;2022-10-16T01:01:42;0.9;;;0.4;;
68872;SDS011;55907;50.806;12.882;2022-10-16T01:07:46;0.7;;;0.4;;
68872;SDS011;55907;50.806;12.882;2022-10-16T01:10:48;0.6;;;0.3;;
68872;SDS011;55907;50.806;12.882;2022-10-16T01:13:48;0.8;;;0.3;;
68872;SDS011;55907;50.806;12.882;2022-10-16T01:16:51;2.7;;;0.4;;
68872;SDS011;55907;50.806;12.882;2022-10-16T01:19:56;0.3;;;0.3;;
68872;SDS011;55907;50.806;12.882;2022-10-16T01:22:56;0.8;;;0.4;;
68872;SDS011;55907;50.806;12.882;2022-10-16T01:25:59;1.7;;;0.6;;
68872;SDS011;55907;50.806;12.882;2022-10-16T01:28:55;2.1;;;0.3;;
68872;SDS011;55907;50.806;12.882;2022-10-16T01:31:58;1.1;;;0.4;;
68872;SDS011;55907;50.806;12.882;2022-10-16T01:34:58;1.3;;;0.3;;
68872;SDS011;55907;50.806;12.882;2022-10-16T01:38:00;1.0;;;0.4;;
68872;SDS011;55907;50.806;12.882;2022-10-16T01:47:04;0.8;;;0.3;;
68872;SDS011;55907;50.806;12.882;2022-10-16T01:50:05;1.1;;;0.3;;
68872;SDS011;55907;50.806;12.882;2022-10-16T01:53:06;0.8;;;0.4;;
68872;SDS011;55907;50.806;12.882;2022-10-16T01:56:08;1.9;;;0.4;;
68872;SDS011;55907;50.806;12.882;2022-10-16T01:59:09;2.1;;;0.5;;
68872;SDS011;55907;50.806;12.882;2022-10-16T02:02:10;0.9;;;0.4;;
68872;SDS011;55907;50.806;12.882;2022-10-16T02:05:14;0.5;;;0.4;;
68872;SDS011;55907;50.806;12.882;2022-10-16T02:08:13;1.0;;;0.4;;
68872;SDS011;55907;50.806;12.882;2022-10-16T02:11:15;1.5;;;0.6;;
68872;SDS011;55907;50.806;12.882;2022-10-16T02:17:18;0.7;;;0.4;;
68872;SDS011;55907;50.806;12.882;2022-10-16T02:20:19;0.6;;;0.4;;
68872;SDS011;55907;50.806;12.882;2022-10-16T02:23:23;0.4;;;0.4;;
68872;SDS011;55907;50.806;12.882;2022-10-16T02:26:23;3.0;;;0.6;;
68872;SDS011;55907;50.806;12.882;2022-10-16T02:29:24;0.7;;;0.5;;
68872;SDS011;55907;50.806;12.882;2022-10-16T02:32:27;0.9;;;0.4;;
68872;SDS011;55907;50.806;12.882;2022-10-16T02:35:27;1.4;;;0.5;;
68872;SDS011;55907;50.806;12.882;2022-10-16T02:38:28;1.3;;;0.4;;
68872;SDS011;55907;50.806;12.882;2022-10-16T02:41:30;1.8;;;0.5;;
68872;SDS011;55907;50.806;12.882;2022-10-16T02:44:31;1.5;;;0.5;;
68872;SDS011;55907;50.806;12.882;2022-10-16T02:47:32;2.7;;;0.5;;
68872;SDS011;55907;50.806;12.882;2022-10-16T02:50:33;1.4;;;0.5;;
68872;SDS011;55907;50.806;12.882;2022-10-16T02:53:35;0.9;;;0.6;;
68872;SDS011;55907;50.806;12.882;2022-10-16T02:56:36;1.1;;;0.6;;
68872;SDS011;55907;50.806;12.882;2022-10-16T02:59:38;1.4;;;0.6;;
68872;SDS011;55907;50.806;12.882;2022-10-16T03:02:39;2.3;;;1.2;;
68872;SDS011;55907;50.806;12.882;2022-10-16T03:05:42;2.0;;;1.2;;
68872;SDS011;55907;50.806;12.882;2022-10-16T03:08:42;1.2;;;0.5;;
68872;SDS011;55907;50.806;12.882;2022-10-16T03:11:44;2.3;;;0.4;;
68872;SDS011;55907;50.806;12.882;2022-10-16T03:14:45;2.0;;;0.5;;
68872;SDS011;55907;50.806;12.882;2022-10-16T03:17:46;1.8;;;0.6;;
68872;SDS011;55907;50.806;12.882;2022-10-16T03:20:48;2.1;;;0.6;;
68872;SDS011;55907;50.806;12.882;2022-10-16T03:23:49;1.3;;;0.7;;
68872;SDS011;55907;50.806;12.882;2022-10-16T03:26:51;0.8;;;0.5;;
68872;SDS011;55907;50.806;12.882;2022-10-16T03:29:52;0.5;;;0.5;;
68872;SDS011;55907;50.806;12.882;2022-10-16T03:32:54;1.0;;;0.5;;
68872;SDS011;55907;50.806;12.882;2022-10-16T03:35:55;1.9;;;0.6;;
68872;SDS011;55907;50.806;12.882;2022-10-16T03:38:56;1.2;;;0.7;;
68872;SDS011;55907;50.806;12.882;2022-10-16T03:41:58;1.1;;;0.5;;
68872;SDS011;55907;50.806;12.882;2022-10-16T03:44:59;2.0;;;0.6;;
68872;SDS011;55907;50.806;12.882;2022-10-16T03:48:01;1.1;;;0.5;;
68872;SDS011;55907;50.806;12.882;2022-10-16T03:51:02;2.2;;;0.6;;
68872;SDS011;55907;50.806;12.882;2022-10-16T03:54:04;0.7;;;0.4;;
68872;SDS011;55907;50.806;12.882;2022-10-16T03:57:05;1.5;;;0.7;;
68872;SDS011;55907;50.806;12.882;2022-10-16T04:00:07;2.5;;;0.6;;
68872;SDS011;55907;50.806;12.882;2022-10-16T04:03:08;1.3;;;0.5;;
68872;SDS011;55907;50.806;12.882;2022-10-16T04:06:09;0.5;;;0.5;;
68872;SDS011;55907;50.806;12.882;2022-10-16T04:09:11;0.6;;;0.4;;
68872;SDS011;55907;50.806;12.882;2022-10-16T04:09:34;unavailable;;;unavailable;;
68872;SDS011;55907;50.806;12.882;2022-10-16T04:09:35;0.6;;;0.4;;
68872;SDS011;55907;50.806;12.882;2022-10-16T04:12:03;unavailable;;;unavailable;;
68872;SDS011;55907;50.806;12.882;2022-10-16T04:12:05;0.6;;;0.4;;
68872;SDS011;55907;50.806;12.882;2022-10-16T04:12:12;1.8;;;0.6;;
68872;SDS011;55907;50.806;12.882;2022-10-16T04:15:14;0.8;;;0.5;;
68872;SDS011;55907;50.806;12.882;2022-10-16T04:18:15;0.5;;;0.5;;
68872;SDS011;55907;50.806;12.882;2022-10-16T04:19:30;unavailable;;;unavailable;;
68872;SDS011;55907;50.806;12.882;2022-10-16T04:19:37;0.5;;;0.5;;
68872;SDS011;55907;50.806;12.882;2022-10-16T04:20:02;unavailable;;;unavailable;;
68872;SDS011;55907;50.806;12.882;2022-10-16T04:21:16;1.6;;;0.4;;
68872;SDS011;55907;50.806;12.882;2022-10-16T04:24:18;1.1;;;0.4;;
68872;SDS011;55907;50.806;12.882;2022-10-16T04:27:19;0.4;;;0.3;;
68872;SDS011;55907;50.806;12.882;2022-10-16T04:30:21;1.0;;;0.4;;
68872;SDS011;55907;50.806;12.882;2022-10-16T04:33:22;2.5;;;0.4;;
68872;SDS011;55907;50.806;12.882;2022-10-16T04:36:23;1.6;;;0.5;;
68872;SDS011;55907;50.806;12.882;2022-10-16T04:39:25;1.4;;;0.3;;
68872;SDS011;55907;50.806;12.882;2022-10-16T04:42:26;1.3;;;0.4;;
68872;SDS011;55907;50.806;12.882;2022-10-16T04:45:28;0.6;;;0.4;;
68872;SDS011;55907;50.806;12.882;2022-10-16T04:48:29;0.9;;;0.5;;
68872;SDS011;55907;50.806;12.882;2022-10-16T04:51:31;0.7;;;0.4;;
68872;SDS011;55907;50.806;12.882;2022-10-16T04:54:32;0.6;;;0.5;;
68872;SDS011;55907;50.806;12.882;2022-10-16T04:57:33;0.9;;;0.4;;
68872;SDS011;55907;50.806;12.882;2022-10-16T05:00:35;0.5;;;0.3;;
68872;SDS011;55907;50.806;12.882;2022-10-16T05:03:36;0.9;;;0.4;;
68872;SDS011;55907;50.806;12.882;2022-10-16T05:06:38;0.6;;;0.4;;
68872;SDS011;55907;50.806;12.882;2022-10-16T05:09:39;1.2;;;0.4;;
68872;SDS011;55907;50.806;12.882;2022-10-16T05:12:41;1.3;;;0.4;;
68872;SDS011;55907;50.806;12.882;2022-10-16T05:15:46;0.8;;;0.5;;
68872;SDS011;55907;50.806;12.882;2022-10-16T05:18:44;2.5;;;0.5;;
68872;SDS011;55907;50.806;12.882;2022-10-16T05:21:45;1.0;;;0.5;;
68872;SDS011;55907;50.806;12.882;2022-10-16T05:24:47;1.1;;;0.4;;
68872;SDS011;55907;50.806;12.882;2022-10-16T05:27:48;0.4;;;0.4;;
68872;SDS011;55907;50.806;12.882;2022-10-16T05:33:51;0.5;;;0.4;;
68872;SDS011;55907;50.806;12.882;2022-10-16T05:39:54;1.3;;;0.4;;
68872;SDS011;55907;50.806;12.882;2022-10-16T05:42:55;0.8;;;0.6;;
68872;SDS011;55907;50.806;12.882;2022-10-16T05:45:57;0.5;;;0.4;;
68872;SDS011;55907;50.806;12.882;2022-10-16T05:48:58;0.3;;;0.3;;
68872;SDS011;55907;50.806;12.882;2022-10-16T05:52:00;2.8;;;0.4;;
68872;SDS011;55907;50.806;12.882;2022-10-16T05:55:01;1.0;;;0.5;;
68872;SDS011;55907;50.806;12.882;2022-10-16T05:58:03;0.9;;;0.6;;
68872;SDS011;55907;50.806;12.882;2022-10-16T06:01:05;0.6;;;0.4;;
68872;SDS011;55907;50.806;12.882;2022-10-16T06:04:06;0.7;;;0.3;;
68872;SDS011;55907;50.806;12.882;2022-10-16T06:13:10;0.6;;;0.4;;
68872;SDS011;55907;50.806;12.882;2022-10-16T06:16:12;1.3;;;0.4;;
68872;SDS011;55907;50.806;12.882;2022-10-16T06:22:14;0.5;;;0.4;;
68872;SDS011;55907;50.806;12.882;2022-10-16T06:25:16;1.1;;;0.4;;
68872;SDS011;55907;50.806;12.882;2022-10-16T06:28:17;4.4;;;2.8;;
68872;SDS011;55907;50.806;12.882;2022-10-16T06:31:18;0.7;;;0.6;;
68872;SDS011;55907;50.806;12.882;2022-10-16T06:34:20;0.8;;;0.5;;
68872;SDS011;55907;50.806;12.882;2022-10-16T06:37:21;1.6;;;0.5;;
68872;SDS011;55907;50.806;12.882;2022-10-16T06:40:23;0.9;;;0.6;;
68872;SDS011;55907;50.806;12.882;2022-10-16T06:43:24;0.5;;;0.5;;
68872;SDS011;55907;50.806;12.882;2022-10-16T06:46:26;1.1;;;0.5;;
68872;SDS011;55907;50.806;12.882;2022-10-16T06:49:27;0.9;;;0.6;;
68872;SDS011;55907;50.806;12.882;2022-10-16T06:52:29;0.4;;;0.4;;
68872;SDS011;55907;50.806;12.882;2022-10-16T06:55:30;0.6;;;0.5;;
68872;SDS011;55907;50.806;12.882;2022-10-16T06:58:31;1.2;;;1.0;;
68872;SDS011;55907;50.806;12.882;2022-10-16T07:01:33;0.9;;;0.6;;
68872;SDS011;55907;50.806;12.882;2022-10-16T07:04:35;1.0;;;0.6;;
68872;SDS011;55907;50.806;12.882;2022-10-16T07:07:36;3.5;;;1.1;;
68872;SDS011;55907;50.806;12.882;2022-10-16T07:10:37;1.1;;;0.7;;
68872;SDS011;55907;50.806;12.882;2022-10-16T07:13:39;1.8;;;0.9;;
68872;SDS011;55907;50.806;12.882;2022-10-16T07:16:40;1.2;;;0.7;;
68872;SDS011;55907;50.806;12.882;2022-10-16T07:19:42;2.1;;;0.7;;
68872;SDS011;55907;50.806;12.882;2022-10-16T07:22:43;1.4;;;0.7;;
68872;SDS011;55907;50.806;12.882;2022-10-16T07:25:44;0.8;;;0.6;;
68872;SDS011;55907;50.806;12.882;2022-10-16T07:28:46;0.7;;;0.6;;
68872;SDS011;55907;50.806;12.882;2022-10-16T07:31:48;0.6;;;0.6;;
68872;SDS011;55907;50.806;12.882;2022-10-16T07:34:49;1.6;;;0.7;;
68872;SDS011;55907;50.806;12.882;2022-10-16T07:37:50;1.2;;;0.6;;
68872;SDS011;55907;50.806;12.882;2022-10-16T07:40:56;1.0;;;0.7;;
68872;SDS011;55907;50.806;12.882;2022-10-16T07:43:53;2.0;;;0.8;;
68872;SDS011;55907;50.806;12.882;2022-10-16T07:46:54;2.2;;;0.6;;
68872;SDS011;55907;50.806;12.882;2022-10-16T07:49:56;1.7;;;1.3;;
68872;SDS011;55907;50.806;12.882;2022-10-16T07:52:57;1.4;;;0.7;;
68872;SDS011;55907;50.806;12.882;2022-10-16T07:55:59;0.9;;;0.8;;
68872;SDS011;55907;50.806;12.882;2022-10-16T07:59:00;1.5;;;1.2;;
68872;SDS011;55907;50.806;12.882;2022-10-16T08:02:02;2.3;;;0.9;;
68872;SDS011;55907;50.806;12.882;2022-10-16T08:05:03;2.0;;;0.7;;
68872;SDS011;55907;50.806;12.882;2022-10-16T08:08:05;1.9;;;1.6;;
68872;SDS011;55907;50.806;12.882;2022-10-16T08:11:06;1.5;;;1.1;;
68872;SDS011;55907;50.806;12.882;2022-10-16T08:14:07;3.3;;;1.7;;
68872;SDS011;55907;50.806;12.882;2022-10-16T08:17:09;2.2;;;0.9;;
68872;SDS011;55907;50.806;12.882;2022-10-16T08:20:10;4.5;;;1.8;;
68872;SDS011;55907;50.806;12.882;2022-10-16T08:23:12;1.9;;;1.0;;
68872;SDS011;55907;50.806;12.882;2022-10-16T08:26:13;1.5;;;1.1;;
68872;SDS011;55907;50.806;12.882;2022-10-16T08:29:14;2.9;;;1.2;;
68872;SDS011;55907;50.806;12.882;2022-10-16T08:32:16;2.3;;;1.0;;
68872;SDS011;55907;50.806;12.882;2022-10-16T08:35:17;2.6;;;1.0;;
68872;SDS011;55907;50.806;12.882;2022-10-16T08:38:23;1.7;;;1.1;;
68872;SDS011;55907;50.806;12.882;2022-10-16T08:39:39;unavailable;;;unavailable;;
68872;SDS011;55907;50.806;12.882;2022-10-16T08:39:57;1.7;;;1.1;;
68872;SDS011;55907;50.806;12.882;2022-10-16T08:41:22;2.2;;;1.4;;
68872;SDS011;55907;50.806;12.882;2022-10-16T08:47:24;1.7;;;0.8;;
68872;SDS011;55907;50.806;12.882;2022-10-16T08:50:25;2.7;;;1.7;;
68872;SDS011;55907;50.806;12.882;2022-10-16T08:53:27;2.1;;;1.1;;
68872;SDS011;55907;50.806;12.882;2022-10-16T08:56:27;2.2;;;1.4;;
68872;SDS011;55907;50.806;12.882;2022-10-16T08:59:28;2.1;;;1.0;;
68872;SDS011;55907;50.806;12.882;2022-10-16T09:05:37;2.4;;;0.8;;
68872;SDS011;55907;50.806;12.882;2022-10-16T09:08:35;2.1;;;1.0;;
68872;SDS011;55907;50.806;12.882;2022-10-16T09:11:36;2.2;;;1.5;;
68872;SDS011;55907;50.806;12.882;2022-10-16T09:14:39;2.0;;;1.0;;
68872;SDS011;55907;50.806;12.882;2022-10-16T09:17:39;2.5;;;1.2;;
68872;SDS011;55907;50.806;12.882;2022-10-16T09:20:40;2.2;;;0.7;;
68872;SDS011;55907;50.806;12.882;2022-10-16T09:23:39;1.8;;;1.1;;
68872;SDS011;55907;50.806;12.882;2022-10-16T09:26:41;2.0;;;0.9;;
68872;SDS011;55907;50.806;12.882;2022-10-16T09:29:42;1.0;;;0.9;;
68872;SDS011;55907;50.806;12.882;2022-10-16T09:32:44;2.6;;;0.9;;
68872;SDS011;55907;50.806;12.882;2022-10-16T09:35:45;1.5;;;1.1;;
68872;SDS011;55907;50.806;12.882;2022-10-16T09:38:46;1.1;;;1.0;;
68872;SDS011;55907;50.806;12.882;2022-10-16T09:41:48;2.0;;;1.2;;
68872;SDS011;55907;50.806;12.882;2022-10-16T09:44:49;1.4;;;0.9;;
68872;SDS011;55907;50.806;12.882;2022-10-16T09:47:51;1.0;;;0.7;;
68872;SDS011;55907;50.806;12.882;2022-10-16T09:50:55;1.4;;;1.1;;
68872;SDS011;55907;50.806;12.882;2022-10-16T09:53:54;2.5;;;0.8;;
68872;SDS011;55907;50.806;12.882;2022-10-16T09:57:03;2.3;;;0.8;;
68872;SDS011;55907;50.806;12.882;2022-10-16T09:59:57;1.7;;;0.9;;
68872;SDS011;55907;50.806;12.882;2022-10-16T10:02:58;1.3;;;0.9;;
68872;SDS011;55907;50.806;12.882;2022-10-16T10:09:03;2.2;;;1.6;;
68872;SDS011;55907;50.806;12.882;2022-10-16T10:12:02;0.9;;;0.8;;
68872;SDS011;55907;50.806;12.882;2022-10-16T10:15:04;1.1;;;0.8;;
68872;SDS011;55907;50.806;12.882;2022-10-16T10:21:12;1.2;;;0.9;;
68872;SDS011;55907;50.806;12.882;2022-10-16T10:24:09;2.2;;;0.7;;
68872;SDS011;55907;50.806;12.882;2022-10-16T10:27:10;1.7;;;0.8;;
68872;SDS011;55907;50.806;12.882;2022-10-16T10:33:14;1.3;;;0.9;;
68872;SDS011;55907;50.806;12.882;2022-10-16T10:36:16;2.1;;;1.1;;
68872;SDS011;55907;50.806;12.882;2022-10-16T10:39:15;1.2;;;0.8;;
68872;SDS011;55907;50.806;12.882;2022-10-16T10:42:18;1.7;;;0.8;;
68872;SDS011;55907;50.806;12.882;2022-10-16T10:45:18;1.6;;;1.1;;
68872;SDS011;55907;50.806;12.882;2022-10-16T10:48:21;2.0;;;0.8;;
68872;SDS011;55907;50.806;12.882;2022-10-16T10:51:21;1.6;;;0.9;;
68872;SDS011;55907;50.806;12.882;2022-10-16T10:54:22;1.4;;;1.0;;
68872;SDS011;55907;50.806;12.882;2022-10-16T10:57:25;0.7;;;0.7;;
68872;SDS011;55907;50.806;12.882;2022-10-16T11:00:26;1.8;;;0.8;;
68872;SDS011;55907;50.806;12.882;2022-10-16T11:03:29;1.4;;;0.8;;
68872;SDS011;55907;50.806;12.882;2022-10-16T11:06:28;3.1;;;1.1;;
68872;SDS011;55907;50.806;12.882;2022-10-16T11:09:30;1.7;;;0.8;;
68872;SDS011;55907;50.806;12.882;2022-10-16T11:12:30;2.0;;;0.9;;
68872;SDS011;55907;50.806;12.882;2022-10-16T11:15:32;4.7;;;3.2;;
68872;SDS011;55907;50.806;12.882;2022-10-16T11:18:33;2.8;;;1.3;;
68872;SDS011;55907;50.806;12.882;2022-10-16T11:21:36;1.3;;;0.9;;
68872;SDS011;55907;50.806;12.882;2022-10-16T11:24:36;1.7;;;0.9;;
68872;SDS011;55907;50.806;12.882;2022-10-16T11:27:37;1.3;;;0.7;;
68872;SDS011;55907;50.806;12.882;2022-10-16T11:30:39;2.2;;;0.7;;
68872;SDS011;55907;50.806;12.882;2022-10-16T11:33:39;1.5;;;0.8;;
68872;SDS011;55907;50.806;12.882;2022-10-16T11:36:42;2.0;;;0.9;;
68872;SDS011;55907;50.806;12.882;2022-10-16T11:39:42;3.0;;;0.9;;
68872;SDS011;55907;50.806;12.882;2022-10-16T11:42:44;1.4;;;0.7;;
68872;SDS011;55907;50.806;12.882;2022-10-16T11:45:45;2.1;;;0.7;;
68872;SDS011;55907;50.806;12.882;2022-10-16T11:48:47;1.0;;;0.8;;
68872;SDS011;55907;50.806;12.882;2022-10-16T11:51:48;1.9;;;0.8;;
68872;SDS011;55907;50.806;12.882;2022-10-16T11:54:50;2.7;;;0.7;;
68872;SDS011;55907;50.806;12.882;2022-10-16T11:57:51;0.9;;;0.6;;
68872;SDS011;55907;50.806;12.882;2022-10-16T12:00:53;3.3;;;0.9;;
68872;SDS011;55907;50.806;12.882;2022-10-16T12:03:56;2.8;;;1.4;;
68872;SDS011;55907;50.806;12.882;2022-10-16T12:06:55;1.7;;;0.8;;
68872;SDS011;55907;50.806;12.882;2022-10-16T12:09:55;1.0;;;0.6;;
68872;SDS011;55907;50.806;12.882;2022-10-16T12:12:57;2.2;;;0.7;;
68872;SDS011;55907;50.806;12.882;2022-10-16T12:16:07;3.9;;;0.6;;
68872;SDS011;55907;50.806;12.882;2022-10-16T12:19:10;1.1;;;0.7;;
68872;SDS011;55907;50.806;12.882;2022-10-16T12:22:00;unavailable;;;unavailable;;
68872;SDS011;55907;50.806;12.882;2022-10-16T12:25:18;unavailable;;;unavailable;;
68872;SDS011;55907;50.806;12.882;2022-10-16T12:25:55;1.6;;;0.7;;
68872;SDS011;55907;50.806;12.882;2022-10-16T12:27:28;unavailable;;;unavailable;;
68872;SDS011;55907;50.806;12.882;2022-10-16T12:28:04;0.7;;;0.5;;
68872;SDS011;55907;50.806;12.882;2022-10-16T12:31:52;unavailable;;;unavailable;;
68872;SDS011;55907;50.806;12.882;2022-10-16T12:32:31;0.7;;;0.5;;
68872;SDS011;55907;50.806;12.882;2022-10-16T12:34:16;3.1;;;1.6;;
68872;SDS011;55907;50.806;12.882;2022-10-16T12:36:33;unavailable;;;unavailable;;
68872;SDS011;55907;50.806;12.882;2022-10-16T12:40:24;3.1;;;0.6;;
68872;SDS011;55907;50.806;12.882;2022-10-16T12:43:12;2.2;;;1.3;;
68872;SDS011;55907;50.806;12.882;2022-10-16T12:49:21;0.8;;;0.6;;
68872;SDS011;55907;50.806;12.882;2022-10-16T12:55:16;0.9;;;0.5;;
68872;SDS011;55907;50.806;12.882;2022-10-16T12:57:41;unavailable;;;unavailable;;
68872;SDS011;55907;50.806;12.882;2022-10-16T12:58:14;0.9;;;0.5;;
68872;SDS011;55907;50.806;12.882;2022-10-16T13:00:42;unavailable;;;unavailable;;
68872;SDS011;55907;50.806;12.882;2022-10-16T13:01:02;1.4;;;0.6;;
68872;SDS011;55907;50.806;12.882;2022-10-16T13:01:22;0.6;;;0.5;;
68872;SDS011;55907;50.806;12.882;2022-10-16T13:02:44;unavailable;;;unavailable;;
68872;SDS011;55907;50.806;12.882;2022-10-16T13:04:22;2.7;;;0.6;;
68872;SDS011;55907;50.806;12.882;2022-10-16T13:07:27;0.6;;;0.6;;
68872;SDS011;55907;50.806;12.882;2022-10-16T13:10:25;3.2;;;0.6;;
68872;SDS011;55907;50.806;12.882;2022-10-16T13:12:45;unavailable;;;unavailable;;
68872;SDS011;55907;50.806;12.882;2022-10-16T13:13:15;3.2;;;0.6;;
68872;SDS011;55907;50.806;12.882;2022-10-16T13:13:26;0.6;;;0.5;;
68872;SDS011;55907;50.806;12.882;2022-10-16T13:16:27;0.9;;;0.5;;
68872;SDS011;55907;50.806;12.882;2022-10-16T13:19:29;0.7;;;0.6;;
68872;SDS011;55907;50.806;12.882;2022-10-16T13:22:29;1.3;;;0.6;;
68872;SDS011;55907;50.806;12.882;2022-10-16T13:25:34;1.7;;;0.7;;
68872;SDS011;55907;50.806;12.882;2022-10-16T13:28:32;1.0;;;0.6;;
68872;SDS011;55907;50.806;12.882;2022-10-16T13:31:32;0.5;;;0.5;;
68872;SDS011;55907;50.806;12.882;2022-10-16T13:34:41;2.2;;;0.5;;
68872;SDS011;55907;50.806;12.882;2022-10-16T13:37:35;1.1;;;1.0;;
68872;SDS011;55907;50.806;12.882;2022-10-16T13:40:36;1.6;;;1.0;;
68872;SDS011;55907;50.806;12.882;2022-10-16T13:43:39;1.2;;;0.8;;
68872;SDS011;55907;50.806;12.882;2022-10-16T13:46:39;0.8;;;0.7;;
68872;SDS011;55907;50.806;12.882;2022-10-16T13:49:40;1.2;;;0.8;;
68872;SDS011;55907;50.806;12.882;2022-10-16T13:52:42;2.0;;;1.6;;
68872;SDS011;55907;50.806;12.882;2022-10-16T13:55:43;1.2;;;0.7;;
68872;SDS011;55907;50.806;12.882;2022-10-16T13:58:45;1.6;;;0.8;;
68872;SDS011;55907;50.806;12.882;2022-10-16T14:01:46;1.1;;;0.8;;
68872;SDS011;55907;50.806;12.882;2022-10-16T14:04:47;2.5;;;1.0;;
68872;SDS011;55907;50.806;12.882;2022-10-16T14:07:49;2.0;;;0.9;;
68872;SDS011;55907;50.806;12.882;2022-10-16T14:10:51;1.9;;;1.3;;
68872;SDS011;55907;50.806;12.882;2022-10-16T14:13:52;3.2;;;1.3;;
68872;SDS011;55907;50.806;12.882;2022-10-16T14:16:53;1.5;;;0.7;;
68872;SDS011;55907;50.806;12.882;2022-10-16T14:19:55;2.2;;;0.7;;
68872;SDS011;55907;50.806;12.882;2022-10-16T14:22:59;2.4;;;1.0;;
68872;SDS011;55907;50.806;12.882;2022-10-16T14:26:05;8.9;;;4.3;;
68872;SDS011;55907;50.806;12.882;2022-10-16T14:29:08;3.2;;;1.8;;
68872;SDS011;55907;50.806;12.882;2022-10-16T14:32:00;2.8;;;1.7;;
68872;SDS011;55907;50.806;12.882;2022-10-16T14:35:01;3.0;;;1.7;;
68872;SDS011;55907;50.806;12.882;2022-10-16T14:38:03;1.7;;;0.9;;
68872;SDS011;55907;50.806;12.882;2022-10-16T14:44:05;1.5;;;0.6;;
68872;SDS011;55907;50.806;12.882;2022-10-16T14:47:07;1.1;;;0.6;;
68872;SDS011;55907;50.806;12.882;2022-10-16T14:50:08;3.3;;;1.0;;
68872;SDS011;55907;50.806;12.882;2022-10-16T14:53:10;2.8;;;0.9;;
68872;SDS011;55907;50.806;12.882;2022-10-16T14:56:14;1.2;;;0.7;;
68872;SDS011;55907;50.806;12.882;2022-10-16T14:59:13;1.1;;;0.7;;
68872;SDS011;55907;50.806;12.882;2022-10-16T15:02:16;1.3;;;0.9;;
68872;SDS011;55907;50.806;12.882;2022-10-16T15:05:16;1.4;;;0.6;;
68872;SDS011;55907;50.806;12.882;2022-10-16T15:08:17;1.5;;;0.9;;
68872;SDS011;55907;50.806;12.882;2022-10-16T15:11:18;2.7;;;0.9;;
68872;SDS011;55907;50.806;12.882;2022-10-16T15:14:19;1.1;;;0.9;;
68872;SDS011;55907;50.806;12.882;2022-10-16T15:17:21;2.2;;;1.1;;
68872;SDS011;55907;50.806;12.882;2022-10-16T15:20:22;2.0;;;1.0;;
68872;SDS011;55907;50.806;12.882;2022-10-16T15:23:24;3.2;;;1.4;;
68872;SDS011;55907;50.806;12.882;2022-10-16T15:26:25;1.1;;;1.0;;
68872;SDS011;55907;50.806;12.882;2022-10-16T15:29:26;1.9;;;1.1;;
68872;SDS011;55907;50.806;12.882;2022-10-16T15:32:28;2.8;;;1.5;;
68872;SDS011;55907;50.806;12.882;2022-10-16T15:35:29;3.0;;;1.8;;
68872;SDS011;55907;50.806;12.882;2022-10-16T15:38:31;2.4;;;1.4;;
68872;SDS011;55907;50.806;12.882;2022-10-16T15:41:32;4.5;;;1.7;;
68872;SDS011;55907;50.806;12.882;2022-10-16T15:44:33;2.7;;;1.7;;
68872;SDS011;55907;50.806;12.882;2022-10-16T15:47:35;2.5;;;1.7;;
68872;SDS011;55907;50.806;12.882;2022-10-16T15:50:36;2.6;;;1.6;;
68872;SDS011;55907;50.806;12.882;2022-10-16T15:53:38;2.9;;;2.0;;
68872;SDS011;55907;50.806;12.882;2022-10-16T15:56:42;4.5;;;2.8;;
68872;SDS011;55907;50.806;12.882;2022-10-16T15:59:40;3.3;;;2.1;;
68872;SDS011;55907;50.806;12.882;2022-10-16T16:02:42;4.4;;;2.2;;
68872;SDS011;55907;50.806;12.882;2022-10-16T16:08:45;4.0;;;2.0;;
68872;SDS011;55907;50.806;12.882;2022-10-16T16:11:46;3.0;;;2.1;;
68872;SDS011;55907;50.806;12.882;2022-10-16T16:14:47;4.3;;;2.6;;
68872;SDS011;55907;50.806;12.882;2022-10-16T16:17:49;5.5;;;2.9;;
68872;SDS011;55907;50.806;12.882;2022-10-16T16:20:50;3.0;;;1.9;;
68872;SDS011;55907;50.806;12.882;2022-10-16T16:23:52;3.1;;;1.8;;
68872;SDS011;55907;50.806;12.882;2022-10-16T16:26:53;4.9;;;1.7;;
68872;SDS011;55907;50.806;12.882;2022-10-16T16:29:55;5.0;;;2.7;;
68872;SDS011;55907;50.806;12.882;2022-10-16T16:32:56;4.4;;;3.1;;
68872;SDS011;55907;50.806;12.882;2022-10-16T16:35:58;3.8;;;2.2;;
68872;SDS011;55907;50.806;12.882;2022-10-16T16:38:59;2.3;;;1.8;;
68872;SDS011;55907;50.806;12.882;2022-10-16T16:42:00;3.1;;;1.8;;
68872;SDS011;55907;50.806;12.882;2022-10-16T16:45:02;3.4;;;1.8;;
68872;SDS011;55907;50.806;12.882;2022-10-16T16:48:03;4.2;;;2.2;;
68872;SDS011;55907;50.806;12.882;2022-10-16T16:51:05;3.6;;;2.0;;
68872;SDS011;55907;50.806;12.882;2022-10-16T16:54:06;2.3;;;1.7;;
68872;SDS011;55907;50.806;12.882;2022-10-16T16:57:07;3.1;;;1.9;;
68872;SDS011;55907;50.806;12.882;2022-10-16T17:00:09;5.6;;;2.2;;
68872;SDS011;55907;50.806;12.882;2022-10-16T17:03:10;4.7;;;3.5;;
68872;SDS011;55907;50.806;12.882;2022-10-16T17:06:12;6.9;;;4.3;;
68872;SDS011;55907;50.806;12.882;2022-10-16T17:12:15;4.6;;;3.4;;
68872;SDS011;55907;50.806;12.882;2022-10-16T17:15:16;5.0;;;3.5;;
68872;SDS011;55907;50.806;12.882;2022-10-16T17:21:19;6.2;;;2.6;;
68872;SDS011;55907;50.806;12.882;2022-10-16T17:24:20;3.9;;;2.2;;
68872;SDS011;55907;50.806;12.882;2022-10-16T17:27:22;4.6;;;2.6;;
68872;SDS011;55907;50.806;12.882;2022-10-16T17:30:23;5.2;;;3.8;;
68872;SDS011;55907;50.806;12.882;2022-10-16T17:33:25;7.0;;;5.1;;
68872;SDS011;55907;50.806;12.882;2022-10-16T17:36:26;3.6;;;2.2;;
68872;SDS011;55907;50.806;12.882;2022-10-16T17:39:27;3.1;;;2.1;;
68872;SDS011;55907;50.806;12.882;2022-10-16T17:45:30;4.8;;;2.3;;
68872;SDS011;55907;50.806;12.882;2022-10-16T17:48:36;6.1;;;2.6;;
68872;SDS011;55907;50.806;12.882;2022-10-16T17:51:33;6.3;;;3.8;;
68872;SDS011;55907;50.806;12.882;2022-10-16T17:54:35;6.1;;;2.7;;
68872;SDS011;55907;50.806;12.882;2022-10-16T17:57:36;4.7;;;2.5;;
68872;SDS011;55907;50.806;12.882;2022-10-16T18:00:38;4.2;;;2.5;;
68872;SDS011;55907;50.806;12.882;2022-10-16T18:03:39;4.9;;;2.4;;
68872;SDS011;55907;50.806;12.882;2022-10-16T18:09:42;3.9;;;2.4;;
68872;SDS011;55907;50.806;12.882;2022-10-16T18:12:43;3.4;;;2.4;;
68872;SDS011;55907;50.806;12.882;2022-10-16T18:15:45;4.1;;;2.6;;
68872;SDS011;55907;50.806;12.882;2022-10-16T18:18:46;4.7;;;2.9;;